createdAt,value
2022-12-28T00:02:53.817Z,6.07
2022-12-28T00:05:56.467Z,6.23
2022-12-28T00:08:59.353Z,6.32
2022-12-28T00:12:01.941Z,6.34
2022-12-28T00:15:06.856Z,6.49
2022-12-28T00:18:09.448Z,6.44
2022-12-28T00:21:12.052Z,6.34
2022-12-28T00:24:19.646Z,6.18
2022-12-28T00:27:22.234Z,6.15
2022-12-28T00:30:26.208Z,6.31
2022-12-28T00:33:28.801Z,6.38
2022-12-28T00:37:10.974Z,6.28
2022-12-28T00:39:54.715Z,6.33
2022-12-28T00:42:57.312Z,6.19
2022-12-28T00:46:01.419Z,6.43
2022-12-28T00:49:04.192Z,6.48
2022-12-28T00:52:06.778Z,6.33
2022-12-28T00:55:10.105Z,6.20
2022-12-28T00:58:12.666Z,6.14
2022-12-28T01:01:18.929Z,6.24
2022-12-28T01:04:21.864Z,6.39
2022-12-28T01:07:24.462Z,6.50
2022-12-28T01:10:27.099Z,6.27
2022-12-28T01:13:29.658Z,6.31
2022-12-28T01:16:35.889Z,6.31
2022-12-28T01:19:38.548Z,6.36
2022-12-28T01:22:41.149Z,6.31
2022-12-28T01:25:43.779Z,6.19
2022-12-28T01:28:46.360Z,6.25
2022-12-28T01:31:50.382Z,6.40
2022-12-28T01:34:52.972Z,6.44
2022-12-28T01:37:57.568Z,6.31
2022-12-28T01:41:00.170Z,6.10
2022-12-28T01:44:42.325Z,6.13
2022-12-28T01:47:47.824Z,6.15
2022-12-28T01:50:51.963Z,5.94
2022-12-28T01:53:56.138Z,6.03
2022-12-28T01:56:59.345Z,6.39
2022-12-28T02:00:06.222Z,6.27
2022-12-28T02:03:14.119Z,6.42
2022-12-28T02:06:16.996Z,6.06
2022-12-28T02:09:24.086Z,6.33
2022-12-28T02:12:26.967Z,6.26
2022-12-28T02:15:29.928Z,6.15
2022-12-28T02:18:33.996Z,6.37
2022-12-28T02:21:47.529Z,6.01
2022-12-28T02:25:13.884Z,6.17
2022-12-28T02:28:40.768Z,6.10
2022-12-28T02:31:53.718Z,6.18
2022-12-28T02:35:04.342Z,6.13
2022-12-28T02:38:15.613Z,6.05
2022-12-28T02:41:22.435Z,6.17
2022-12-28T02:44:42.656Z,6.33
2022-12-28T02:48:05.249Z,6.34
2022-12-28T02:51:18.373Z,6.32
2022-12-28T02:54:56.778Z,6.43
2022-12-28T02:58:17.659Z,6.44
2022-12-28T03:01:36.200Z,6.23
2022-12-28T03:04:56.036Z,6.42
2022-12-28T03:08:19.811Z,6.25
2022-12-28T03:11:34.163Z,6.36
2022-12-28T03:14:43.670Z,6.00
2022-12-28T03:18:03.623Z,5.84
2022-12-28T03:21:29.569Z,5.86
2022-12-28T03:24:52.859Z,6.09
2022-12-28T03:28:14.124Z,5.86
2022-12-28T03:31:22.085Z,6.12
2022-12-28T03:34:25.075Z,5.97
2022-12-28T03:37:33.890Z,5.82
2022-12-28T03:40:48.072Z,5.74
2022-12-28T03:43:54.398Z,5.83
2022-12-28T03:47:01.265Z,5.82
2022-12-28T03:50:04.772Z,5.32
2022-12-28T03:53:09.572Z,5.29
2022-12-28T03:56:14.948Z,5.37
2022-12-28T03:59:18.488Z,5.79
2022-12-28T04:02:21.204Z,5.46
2022-12-28T04:05:24.003Z,5.65
2022-12-28T04:08:28.496Z,5.66
2022-12-28T04:11:31.121Z,5.42
2022-12-28T04:14:33.721Z,5.22
2022-12-28T04:17:36.307Z,5.22
2022-12-28T04:20:38.916Z,5.54
2022-12-28T04:23:43.522Z,5.24
2022-12-28T04:26:46.091Z,5.19
2022-12-28T04:29:48.682Z,5.39
2022-12-28T04:32:51.257Z,5.17
2022-12-28T04:35:54.175Z,4.80
2022-12-28T04:38:59.425Z,5.22
2022-12-28T04:42:02.046Z,5.33
2022-12-28T04:45:05.267Z,5.18
2022-12-28T04:48:07.900Z,5.47
2022-12-28T04:51:12.586Z,5.24
2022-12-28T04:54:16.547Z,4.74
2022-12-28T04:57:19.143Z,4.77
2022-12-28T05:00:21.755Z,5.20
2022-12-28T05:03:24.334Z,5.15
2022-12-28T05:06:27.567Z,5.28
2022-12-28T05:09:31.564Z,5.32
2022-12-28T05:12:34.141Z,5.06
2022-12-28T05:15:38.652Z,5.17
2022-12-28T05:18:41.900Z,5.05
2022-12-28T05:21:44.496Z,4.93
2022-12-28T05:24:48.440Z,5.27
2022-12-28T05:27:51.047Z,5.12
2022-12-28T05:30:54.367Z,5.23
2022-12-28T05:33:57.128Z,4.94
2022-12-28T05:36:59.939Z,4.78
2022-12-28T05:40:04.109Z,4.95
2022-12-28T05:43:06.717Z,5.11
2022-12-28T05:46:11.997Z,5.20
2022-12-28T05:49:14.588Z,4.92
2022-12-28T05:52:17.521Z,5.16
2022-12-28T05:55:21.463Z,5.27
2022-12-28T05:58:24.076Z,5.15
2022-12-28T06:01:30.159Z,5.08
2022-12-28T06:04:32.808Z,5.28
2022-12-28T06:07:35.410Z,5.36
2022-12-28T06:10:39.321Z,5.24
2022-12-28T06:13:42.296Z,5.23
2022-12-28T06:16:45.957Z,5.30
2022-12-28T06:19:48.648Z,5.50
2022-12-28T06:22:51.304Z,5.29
2022-12-28T06:25:55.232Z,5.41
2022-12-28T06:28:58.352Z,5.34
2022-12-28T06:32:01.353Z,5.62
2022-12-28T06:35:04.274Z,5.43
2022-12-28T06:38:06.863Z,5.36
2022-12-28T06:41:14.676Z,5.43
2022-12-28T06:44:17.617Z,5.50
2022-12-28T06:47:20.194Z,5.65
2022-12-28T06:50:22.762Z,5.69
2022-12-28T06:53:25.936Z,5.88
2022-12-28T06:56:31.786Z,5.77
2022-12-28T06:59:34.375Z,5.74
2022-12-28T07:02:37.103Z,5.93
2022-12-28T07:05:39.846Z,5.64
2022-12-28T07:08:42.861Z,5.54
2022-12-28T07:11:46.858Z,5.58
2022-12-28T07:14:49.512Z,5.66
2022-12-28T07:17:52.071Z,5.72
2022-12-28T07:21:00.368Z,5.64
2022-12-28T07:24:04.500Z,5.77
2022-12-28T07:27:08.658Z,5.83
2022-12-28T07:30:12.497Z,5.90
2022-12-28T07:33:15.097Z,5.92
2022-12-28T07:36:19.883Z,5.93
2022-12-28T07:39:22.439Z,5.94
2022-12-28T07:42:26.393Z,6.00
2022-12-28T07:45:28.986Z,6.10
2022-12-28T07:48:32.569Z,5.99
2022-12-28T07:51:36.798Z,6.09
2022-12-28T07:54:39.384Z,5.96
2022-12-28T07:57:43.335Z,6.25
2022-12-28T08:00:45.980Z,6.15
2022-12-28T08:03:49.042Z,6.24
2022-12-28T08:06:51.653Z,6.28
2022-12-28T08:09:54.207Z,6.22
2022-12-28T08:12:59.947Z,6.26
2022-12-28T08:16:02.928Z,6.21
2022-12-28T08:19:06.137Z,6.41
2022-12-28T08:22:08.878Z,6.53
2022-12-28T08:25:11.562Z,6.62
2022-12-28T08:28:15.535Z,6.57
2022-12-28T08:31:20.093Z,6.49
2022-12-28T08:34:26.542Z,6.56
2022-12-28T08:37:29.201Z,6.42
2022-12-28T08:40:31.807Z,6.49
2022-12-28T08:43:36.263Z,6.62
2022-12-28T08:46:40.544Z,6.59
2022-12-28T08:49:44.501Z,6.60
2022-12-28T08:52:47.103Z,6.66
2022-12-28T08:55:49.724Z,6.76
2022-12-28T08:58:53.686Z,6.91
2022-12-28T09:01:56.359Z,6.83
2022-12-28T09:04:58.987Z,6.90
2022-12-28T09:08:01.592Z,7.08
2022-12-28T09:11:05.782Z,6.99
2022-12-28T09:14:14.468Z,7.05
2022-12-28T09:17:21.413Z,7.13
2022-12-28T09:20:24.037Z,7.13
2022-12-28T09:23:26.619Z,7.06
2022-12-28T09:26:31.680Z,7.08
2022-12-28T09:29:35.690Z,7.16
2022-12-28T09:32:38.282Z,7.26
2022-12-28T09:35:40.866Z,7.25
2022-12-28T09:38:43.916Z,7.33
2022-12-28T09:41:50.447Z,7.45
2022-12-28T09:45:00.477Z,7.48
2022-12-28T09:48:08.099Z,7.55
2022-12-28T09:51:10.947Z,7.50
2022-12-28T09:54:13.857Z,7.45
2022-12-28T09:57:19.094Z,7.56
2022-12-28T10:00:25.683Z,7.57
2022-12-28T10:03:35.927Z,7.60
2022-12-28T10:06:40.426Z,7.68
2022-12-28T10:09:43.371Z,7.67
2022-12-28T10:12:46.955Z,7.78
2022-12-28T10:15:51.485Z,7.72
2022-12-28T10:18:54.608Z,7.79
2022-12-28T10:22:01.395Z,7.87
2022-12-28T10:25:11.716Z,7.75
2022-12-28T10:28:17.840Z,7.88
2022-12-28T10:31:33.992Z,7.95
2022-12-28T10:34:37.907Z,7.86
2022-12-28T10:37:45.475Z,7.89
2022-12-28T10:40:59.021Z,7.94
2022-12-28T10:44:41.724Z,7.84
2022-12-28T10:47:45.045Z,8.06
2022-12-28T10:50:52.639Z,7.98
2022-12-28T10:53:56.654Z,8.08
2022-12-28T10:57:00.522Z,8.13
2022-12-28T11:00:20.032Z,8.21
2022-12-28T11:03:28.113Z,8.14
2022-12-28T11:06:31.955Z,8.23
2022-12-28T11:09:36.564Z,8.20
2022-12-28T11:12:43.957Z,8.20
2022-12-28T11:15:46.793Z,8.26
2022-12-28T11:18:51.289Z,8.35
2022-12-28T11:21:54.615Z,8.25
2022-12-28T11:25:00.160Z,8.43
2022-12-28T11:28:06.543Z,8.36
2022-12-28T11:31:15.406Z,8.35
2022-12-28T11:34:24.340Z,8.46
2022-12-28T11:37:27.119Z,8.21
2022-12-28T11:40:52.336Z,8.34
2022-12-28T11:43:56.619Z,8.31
2022-12-28T11:47:07.061Z,8.28
2022-12-28T11:50:42.913Z,8.27
2022-12-28T11:53:55.276Z,8.32
2022-12-28T11:57:00.951Z,8.27
2022-12-28T12:00:48.197Z,8.21
2022-12-28T12:04:24.776Z,8.23
2022-12-28T12:07:48.072Z,8.20
2022-12-28T12:11:11.075Z,8.18
2022-12-28T12:14:14.759Z,8.24
2022-12-28T12:17:25.225Z,8.36
2022-12-28T12:20:52.876Z,8.38
2022-12-28T12:23:58.552Z,8.27
2022-12-28T12:27:11.919Z,8.34
2022-12-28T12:30:17.554Z,8.39
2022-12-28T12:33:26.485Z,8.43
2022-12-28T12:37:00.054Z,8.36
2022-12-28T12:40:40.160Z,8.47
2022-12-28T12:43:56.252Z,8.52
2022-12-28T12:47:28.597Z,8.59
2022-12-28T12:50:55.143Z,8.57
2022-12-28T12:54:16.481Z,8.48
2022-12-28T12:57:26.812Z,8.49
2022-12-28T13:00:39.117Z,8.56
2022-12-28T13:03:45.905Z,8.60
2022-12-28T13:06:50.039Z,8.61
2022-12-28T13:09:55.561Z,8.51
2022-12-28T13:13:01.948Z,8.67
2022-12-28T13:16:09.240Z,8.55
2022-12-28T13:19:19.595Z,8.53
2022-12-28T13:22:29.490Z,8.50
2022-12-28T13:25:33.829Z,8.53
2022-12-28T13:28:38.659Z,8.53
2022-12-28T13:31:49.411Z,8.53
2022-12-28T13:34:51.993Z,8.64
2022-12-28T13:38:06.681Z,8.60
2022-12-28T13:41:19.953Z,8.60
2022-12-28T13:44:39.943Z,8.57
2022-12-28T13:47:47.247Z,8.62
2022-12-28T13:50:52.391Z,8.45
2022-12-28T13:53:58.594Z,8.47
2022-12-28T13:57:36.017Z,8.67
2022-12-28T14:00:25.350Z,8.65
2022-12-28T14:03:33.304Z,8.66
2022-12-28T14:06:38.780Z,8.71
2022-12-28T14:09:41.858Z,8.68
2022-12-28T14:12:46.199Z,8.64
2022-12-28T14:15:50.952Z,8.68
2022-12-28T14:18:54.049Z,8.60
2022-12-28T14:21:56.766Z,8.71
2022-12-28T14:25:05.522Z,8.50
2022-12-28T14:28:08.235Z,8.68
2022-12-28T14:31:14.174Z,8.83
2022-12-28T14:34:24.078Z,8.78
2022-12-28T14:37:29.524Z,8.66
2022-12-28T14:40:34.111Z,8.64
2022-12-28T14:43:37.837Z,8.64
2022-12-28T14:46:42.790Z,8.57
2022-12-28T14:49:45.707Z,8.72
2022-12-28T14:52:50.520Z,8.61
2022-12-28T14:56:12.021Z,8.44
2022-12-28T14:59:23.263Z,8.55
2022-12-28T15:02:41.357Z,8.69
2022-12-28T15:05:45.746Z,8.60
2022-12-28T15:08:50.030Z,8.60
2022-12-28T15:12:09.801Z,8.66
2022-12-28T15:15:13.145Z,8.68
2022-12-28T15:18:17.404Z,8.71
2022-12-28T15:21:21.948Z,8.74
2022-12-28T15:24:28.613Z,8.62
2022-12-28T15:27:35.973Z,8.77
2022-12-28T15:30:41.675Z,8.69
2022-12-28T15:33:46.219Z,8.62
2022-12-28T15:36:48.848Z,8.73
2022-12-28T15:39:51.530Z,8.82
2022-12-28T15:42:54.164Z,8.77
2022-12-28T15:45:57.951Z,8.69
2022-12-28T15:49:03.119Z,8.78
2022-12-28T15:52:06.119Z,8.72
2022-12-28T15:55:09.444Z,8.72
2022-12-28T15:58:12.043Z,8.73
2022-12-28T16:01:14.742Z,8.70
2022-12-28T16:04:18.843Z,8.73
2022-12-28T16:07:21.504Z,8.70
2022-12-28T16:10:24.107Z,8.71
2022-12-28T16:13:26.674Z,8.78
2022-12-28T16:16:31.461Z,8.75
2022-12-28T16:19:35.514Z,8.78
2022-12-28T16:22:38.102Z,8.84
2022-12-28T16:25:40.716Z,8.71
2022-12-28T16:28:43.324Z,8.70
2022-12-28T16:31:46.052Z,8.64
2022-12-28T16:34:50.212Z,8.56
2022-12-28T16:37:53.293Z,8.67
2022-12-28T16:40:57.142Z,8.69
2022-12-28T16:44:02.870Z,8.84
2022-12-28T16:47:05.742Z,8.72
2022-12-28T16:50:10.698Z,8.69
2022-12-28T16:53:13.298Z,8.61
2022-12-28T16:56:15.863Z,8.72
2022-12-28T16:59:20.414Z,8.59
2022-12-28T17:02:23.134Z,8.63
2022-12-28T17:05:27.241Z,8.66
2022-12-28T17:08:30.452Z,8.56
2022-12-28T17:11:33.245Z,8.55
2022-12-28T17:14:37.717Z,8.64
2022-12-28T17:17:40.784Z,8.73
2022-12-28T17:20:46.027Z,8.67
2022-12-28T17:23:48.605Z,8.69
2022-12-28T17:26:51.194Z,8.62
2022-12-28T17:29:53.797Z,8.60
2022-12-28T17:32:56.765Z,8.55
2022-12-28T17:36:01.752Z,8.71
2022-12-28T17:39:04.612Z,8.82
2022-12-28T17:42:07.940Z,8.67
2022-12-28T17:45:12.084Z,8.63
2022-12-28T17:48:15.166Z,8.68
2022-12-28T17:51:19.483Z,8.92
2022-12-28T17:54:22.094Z,8.55
2022-12-28T17:57:24.762Z,8.55
2022-12-28T18:00:27.348Z,8.59
2022-12-28T18:03:33.710Z,8.63
2022-12-28T18:06:38.390Z,8.76
2022-12-28T18:09:40.959Z,8.81
2022-12-28T18:12:43.596Z,8.74
2022-12-28T18:15:47.674Z,8.57
2022-12-28T18:18:50.405Z,8.48
2022-12-28T18:21:54.364Z,8.61
2022-12-28T18:24:56.961Z,8.52
2022-12-28T18:27:59.571Z,8.61
2022-12-28T18:31:03.170Z,8.47
2022-12-28T18:34:07.331Z,8.45
2022-12-28T18:37:11.406Z,8.26
2022-12-28T18:40:13.999Z,8.41
2022-12-28T18:43:16.588Z,8.52
2022-12-28T18:46:19.939Z,8.58
2022-12-28T18:49:22.673Z,8.44
2022-12-28T18:52:26.653Z,8.48
2022-12-28T18:55:29.218Z,8.63
2022-12-28T18:58:33.742Z,8.61
2022-12-28T19:05:01.565Z,8.59
2022-12-28T19:08:06.138Z,8.51
2022-12-28T19:11:09.834Z,8.43
2022-12-28T19:14:14.418Z,8.59
2022-12-28T19:17:16.969Z,8.61
2022-12-28T19:20:20.121Z,8.55
2022-12-28T19:23:24.259Z,8.59
2022-12-28T19:26:27.216Z,8.54
2022-12-28T19:29:31.232Z,8.72
2022-12-28T19:32:33.817Z,8.53
2022-12-28T19:35:36.362Z,8.56
2022-12-28T19:38:40.296Z,8.59
2022-12-28T19:41:42.866Z,8.37
2022-12-28T19:44:45.442Z,8.36
2022-12-28T19:47:48.020Z,8.61
2022-12-28T19:50:50.676Z,8.37
2022-12-28T19:53:55.259Z,8.37
2022-12-28T19:56:57.861Z,8.39
2022-12-28T20:00:00.451Z,8.20
2022-12-28T20:03:03.186Z,8.31
2022-12-28T20:06:07.480Z,8.26
2022-12-28T20:09:12.503Z,8.10
2022-12-28T20:12:15.077Z,8.06
2022-12-28T20:15:19.603Z,8.04
2022-12-28T20:18:22.402Z,8.16
2022-12-28T20:21:26.583Z,8.27
2022-12-28T20:24:30.587Z,8.20
2022-12-28T20:27:33.164Z,8.26
2022-12-28T20:30:35.770Z,8.25
2022-12-28T20:33:38.630Z,8.10
2022-12-28T20:36:41.229Z,8.34
2022-12-28T20:39:45.184Z,8.22
2022-12-28T20:43:07.552Z,8.07
2022-12-28T20:46:12.025Z,8.00
2022-12-28T20:49:14.752Z,8.15
2022-12-28T20:52:17.515Z,8.17
2022-12-28T20:55:21.781Z,8.24
2022-12-28T20:58:24.353Z,7.94
2022-12-28T21:01:27.075Z,7.79
2022-12-28T21:04:29.820Z,8.01
2022-12-28T21:07:32.487Z,7.92
2022-12-28T21:10:36.417Z,7.98
2022-12-28T21:13:43.916Z,8.17
2022-12-28T21:16:47.428Z,8.06
2022-12-28T21:19:50.074Z,8.04
2022-12-28T21:22:52.703Z,7.98
2022-12-28T21:26:02.150Z,7.87
2022-12-28T21:29:04.744Z,7.90
2022-12-28T21:32:07.353Z,7.91
2022-12-28T21:35:10.410Z,7.99
2022-12-28T21:38:12.982Z,7.68
2022-12-28T21:41:39.248Z,7.54
2022-12-28T21:44:41.853Z,7.86
2022-12-28T21:47:44.473Z,7.77
2022-12-28T21:50:47.054Z,7.92
2022-12-28T21:53:49.651Z,7.95
2022-12-28T21:56:56.242Z,7.95
2022-12-28T22:00:18.829Z,8.02
2022-12-28T22:03:38.995Z,7.95
2022-12-28T22:06:41.706Z,7.92
2022-12-28T22:10:02.188Z,7.84
2022-12-28T22:13:06.111Z,7.83
2022-12-28T22:16:08.821Z,7.85
2022-12-28T22:19:11.475Z,7.99
2022-12-28T22:22:14.276Z,8.07
2022-12-28T22:25:17.516Z,7.94
2022-12-28T22:28:21.444Z,8.02
2022-12-28T22:31:24.076Z,7.95
2022-12-28T22:34:26.656Z,7.94
2022-12-28T22:37:29.244Z,7.97
2022-12-28T22:40:31.856Z,8.07
2022-12-28T22:43:35.838Z,8.11
2022-12-28T22:46:38.462Z,7.99
2022-12-28T22:49:41.051Z,7.84
2022-12-28T22:52:44.075Z,8.00
2022-12-28T22:55:46.641Z,8.01
2022-12-28T22:58:50.598Z,7.94
2022-12-28T23:01:54.642Z,7.88
2022-12-28T23:04:57.425Z,8.08
2022-12-28T23:08:00.050Z,7.96
2022-12-28T23:11:05.046Z,8.13
2022-12-28T23:14:29.930Z,8.14
2022-12-28T23:17:32.534Z,8.15
2022-12-28T23:20:53.684Z,7.98
2022-12-28T23:24:13.829Z,8.02
2022-12-28T23:27:22.323Z,8.10
2022-12-28T23:30:26.431Z,7.97
2022-12-28T23:33:29.055Z,8.08
2022-12-28T23:36:33.429Z,8.08
2022-12-28T23:39:36.046Z,8.27
2022-12-28T23:42:38.915Z,8.24
2022-12-28T23:45:42.832Z,8.26
2022-12-28T23:48:45.435Z,8.34
2022-12-28T23:51:48.511Z,8.36
2022-12-28T23:54:51.328Z,8.38
2022-12-28T23:57:53.913Z,8.42
